sensor_id;sensor_type;location;lat;lon;timestamp;P1;durP1;ratioP1;P2;durP2;ratioP2
18499;SDS011;9379;52.134;11.576;2023-10-09T00:01:26;2.15;;;1.73;;
18499;SDS011;9379;52.134;11.576;2023-10-09T00:03:56;5.22;;;1.80;;
18499;SDS011;9379;52.134;11.576;2023-10-09T00:06:26;2.38;;;1.23;;
18499;SDS011;9379;52.134;11.576;2023-10-09T00:09:02;5.93;;;1.48;;
18499;SDS011;9379;52.134;11.576;2023-10-09T00:11:42;1.70;;;1.48;;
18499;SDS011;9379;52.134;11.576;2023-10-09T00:14:10;1.83;;;1.10;;
18499;SDS011;9379;52.134;11.576;2023-10-09T00:16:39;1.95;;;1.75;;
18499;SDS011;9379;52.134;11.576;2023-10-09T00:19:12;1.23;;;1.13;;
18499;SDS011;9379;52.134;11.576;2023-10-09T00:21:42;2.40;;;1.25;;
18499;SDS011;9379;52.134;11.576;2023-10-09T00:24:10;3.40;;;1.60;;
18499;SDS011;9379;52.134;11.576;2023-10-09T00:26:42;2.08;;;1.98;;
18499;SDS011;9379;52.134;11.576;2023-10-09T00:29:11;1.88;;;1.52;;
18499;SDS011;9379;52.134;11.576;2023-10-09T00:31:42;2.00;;;1.40;;
18499;SDS011;9379;52.134;11.576;2023-10-09T00:34:15;1.48;;;1.38;;
18499;SDS011;9379;52.134;11.576;2023-10-09T00:36:44;3.13;;;2.35;;
18499;SDS011;9379;52.134;11.576;2023-10-09T00:39:16;1.88;;;1.23;;
18499;SDS011;9379;52.134;11.576;2023-10-09T00:41:57;3.53;;;1.52;;
18499;SDS011;9379;52.134;11.576;2023-10-09T00:44:26;2.88;;;1.80;;
18499;SDS011;9379;52.134;11.576;2023-10-09T00:47:04;1.58;;;1.48;;
18499;SDS011;9379;52.134;11.576;2023-10-09T00:49:45;1.85;;;1.75;;
18499;SDS011;9379;52.134;11.576;2023-10-09T00:52:19;5.00;;;1.73;;
18499;SDS011;9379;52.134;11.576;2023-10-09T00:54:58;2.47;;;1.85;;
18499;SDS011;9379;52.134;11.576;2023-10-09T00:57:33;4.80;;;2.85;;
18499;SDS011;9379;52.134;11.576;2023-10-09T01:00:05;2.63;;;2.22;;
18499;SDS011;9379;52.134;11.576;2023-10-09T01:02:50;2.28;;;1.83;;
18499;SDS011;9379;52.134;11.576;2023-10-09T01:05:35;2.80;;;1.92;;
18499;SDS011;9379;52.134;11.576;2023-10-09T01:08:04;1.25;;;1.15;;
18499;SDS011;9379;52.134;11.576;2023-10-09T01:10:45;1.48;;;1.38;;
18499;SDS011;9379;52.134;11.576;2023-10-09T01:13:17;1.65;;;1.55;;
18499;SDS011;9379;52.134;11.576;2023-10-09T01:15:44;1.10;;;0.98;;
18499;SDS011;9379;52.134;11.576;2023-10-09T01:18:14;3.00;;;1.30;;
18499;SDS011;9379;52.134;11.576;2023-10-09T01:20:44;1.50;;;1.33;;
18499;SDS011;9379;52.134;11.576;2023-10-09T01:23:13;1.70;;;1.02;;
18499;SDS011;9379;52.134;11.576;2023-10-09T01:25:40;2.40;;;2.20;;
18499;SDS011;9379;52.134;11.576;2023-10-09T01:28:14;1.50;;;0.93;;
18499;SDS011;9379;52.134;11.576;2023-10-09T01:30:42;5.97;;;1.67;;
18499;SDS011;9379;52.134;11.576;2023-10-09T01:33:11;2.85;;;1.55;;
18499;SDS011;9379;52.134;11.576;2023-10-09T01:35:52;2.03;;;1.35;;
18499;SDS011;9379;52.134;11.576;2023-10-09T01:38:25;1.92;;;1.42;;
18499;SDS011;9379;52.134;11.576;2023-10-09T01:41:07;2.00;;;1.73;;
18499;SDS011;9379;52.134;11.576;2023-10-09T01:43:41;2.28;;;1.35;;
18499;SDS011;9379;52.134;11.576;2023-10-09T01:46:10;1.67;;;1.58;;
18499;SDS011;9379;52.134;11.576;2023-10-09T01:48:37;2.75;;;1.30;;
18499;SDS011;9379;52.134;11.576;2023-10-09T01:51:13;1.77;;;1.48;;
18499;SDS011;9379;52.134;11.576;2023-10-09T01:53:44;2.03;;;1.38;;
18499;SDS011;9379;52.134;11.576;2023-10-09T01:56:12;2.15;;;1.95;;
18499;SDS011;9379;52.134;11.576;2023-10-09T01:58:44;2.38;;;2.00;;
18499;SDS011;9379;52.134;11.576;2023-10-09T02:01:12;4.18;;;2.40;;
18499;SDS011;9379;52.134;11.576;2023-10-09T02:03:40;3.95;;;1.98;;
18499;SDS011;9379;52.134;11.576;2023-10-09T02:06:08;2.20;;;1.13;;
18499;SDS011;9379;52.134;11.576;2023-10-09T02:08:52;1.17;;;1.08;;
18499;SDS011;9379;52.134;11.576;2023-10-09T02:11:21;1.25;;;1.15;;
18499;SDS011;9379;52.134;11.576;2023-10-09T02:14:02;2.95;;;1.30;;
18499;SDS011;9379;52.134;11.576;2023-10-09T02:16:41;2.25;;;1.50;;
18499;SDS011;9379;52.134;11.576;2023-10-09T02:19:08;2.00;;;1.90;;
18499;SDS011;9379;52.134;11.576;2023-10-09T02:21:54;1.75;;;1.63;;
18499;SDS011;9379;52.134;11.576;2023-10-09T02:24:23;2.08;;;1.40;;
18499;SDS011;9379;52.134;11.576;2023-10-09T02:27:14;3.83;;;1.73;;
18499;SDS011;9379;52.134;11.576;2023-10-09T02:29:47;1.75;;;1.65;;
18499;SDS011;9379;52.134;11.576;2023-10-09T02:32:14;5.45;;;2.45;;
18499;SDS011;9379;52.134;11.576;2023-10-09T02:34:50;2.63;;;2.08;;
18499;SDS011;9379;52.134;11.576;2023-10-09T02:37:19;1.45;;;1.33;;
18499;SDS011;9379;52.134;11.576;2023-10-09T02:39:50;2.42;;;1.80;;
18499;SDS011;9379;52.134;11.576;2023-10-09T02:42:17;1.85;;;1.70;;
18499;SDS011;9379;52.134;11.576;2023-10-09T02:44:52;3.58;;;2.10;;
18499;SDS011;9379;52.134;11.576;2023-10-09T02:47:20;5.95;;;1.88;;
18499;SDS011;9379;52.134;11.576;2023-10-09T02:49:50;1.92;;;1.70;;
18499;SDS011;9379;52.134;11.576;2023-10-09T02:52:17;2.95;;;1.70;;
18499;SDS011;9379;52.134;11.576;2023-10-09T02:54:51;2.28;;;1.65;;
18499;SDS011;9379;52.134;11.576;2023-10-09T02:57:25;1.13;;;0.98;;
18499;SDS011;9379;52.134;11.576;2023-10-09T03:00:01;2.22;;;1.83;;
18499;SDS011;9379;52.134;11.576;2023-10-09T03:02:33;2.83;;;2.13;;
18499;SDS011;9379;52.134;11.576;2023-10-09T03:05:05;4.80;;;2.47;;
18499;SDS011;9379;52.134;11.576;2023-10-09T03:07:37;2.40;;;1.67;;
18499;SDS011;9379;52.134;11.576;2023-10-09T03:10:07;2.00;;;1.55;;
18499;SDS011;9379;52.134;11.576;2023-10-09T03:12:34;3.13;;;2.45;;
18499;SDS011;9379;52.134;11.576;2023-10-09T03:15:01;2.88;;;2.25;;
18499;SDS011;9379;52.134;11.576;2023-10-09T03:17:31;2.13;;;1.55;;
18499;SDS011;9379;52.134;11.576;2023-10-09T03:19:59;2.47;;;2.08;;
18499;SDS011;9379;52.134;11.576;2023-10-09T03:22:37;2.83;;;2.53;;
18499;SDS011;9379;52.134;11.576;2023-10-09T03:25:04;5.35;;;2.45;;
18499;SDS011;9379;52.134;11.576;2023-10-09T03:27:37;4.47;;;2.50;;
18499;SDS011;9379;52.134;11.576;2023-10-09T03:30:07;2.58;;;1.85;;
18499;SDS011;9379;52.134;11.576;2023-10-09T03:32:42;1.83;;;1.70;;
18499;SDS011;9379;52.134;11.576;2023-10-09T03:35:10;4.57;;;2.17;;
18499;SDS011;9379;52.134;11.576;2023-10-09T03:37:41;2.05;;;1.88;;
18499;SDS011;9379;52.134;11.576;2023-10-09T03:40:11;2.58;;;2.03;;
18499;SDS011;9379;52.134;11.576;2023-10-09T03:42:43;2.03;;;1.58;;
18499;SDS011;9379;52.134;11.576;2023-10-09T03:45:10;4.50;;;3.00;;
18499;SDS011;9379;52.134;11.576;2023-10-09T03:47:49;2.90;;;2.60;;
18499;SDS011;9379;52.134;11.576;2023-10-09T03:50:22;5.20;;;2.35;;
18499;SDS011;9379;52.134;11.576;2023-10-09T03:52:52;2.72;;;2.40;;
18499;SDS011;9379;52.134;11.576;2023-10-09T03:55:21;2.42;;;1.80;;
18499;SDS011;9379;52.134;11.576;2023-10-09T03:57:52;4.00;;;2.08;;
18499;SDS011;9379;52.134;11.576;2023-10-09T04:00:22;3.60;;;2.83;;
18499;SDS011;9379;52.134;11.576;2023-10-09T04:02:53;8.43;;;2.92;;
18499;SDS011;9379;52.134;11.576;2023-10-09T04:05:20;3.60;;;2.72;;
18499;SDS011;9379;52.134;11.576;2023-10-09T04:07:47;2.05;;;1.95;;
18499;SDS011;9379;52.134;11.576;2023-10-09T04:10:14;4.45;;;2.33;;
18499;SDS011;9379;52.134;11.576;2023-10-09T04:12:59;2.90;;;2.50;;
18499;SDS011;9379;52.134;11.576;2023-10-09T04:15:28;4.22;;;2.83;;
18499;SDS011;9379;52.134;11.576;2023-10-09T04:18:00;9.35;;;3.88;;
18499;SDS011;9379;52.134;11.576;2023-10-09T04:20:28;3.30;;;2.85;;
18499;SDS011;9379;52.134;11.576;2023-10-09T04:23:33;4.47;;;3.28;;
18499;SDS011;9379;52.134;11.576;2023-10-09T04:26:20;5.03;;;2.80;;
18499;SDS011;9379;52.134;11.576;2023-10-09T04:28:51;3.75;;;3.45;;
18499;SDS011;9379;52.134;11.576;2023-10-09T04:31:19;7.30;;;3.42;;
18499;SDS011;9379;52.134;11.576;2023-10-09T04:33:52;3.67;;;2.38;;
18499;SDS011;9379;52.134;11.576;2023-10-09T04:36:44;4.35;;;3.95;;
18499;SDS011;9379;52.134;11.576;2023-10-09T04:39:15;5.38;;;4.85;;
18499;SDS011;9379;52.134;11.576;2023-10-09T04:42:00;4.50;;;3.15;;
18499;SDS011;9379;52.134;11.576;2023-10-09T04:45:01;5.50;;;3.95;;
18499;SDS011;9379;52.134;11.576;2023-10-09T04:48:17;4.20;;;3.83;;
18499;SDS011;9379;52.134;11.576;2023-10-09T04:50:58;8.13;;;4.13;;
18499;SDS011;9379;52.134;11.576;2023-10-09T04:53:45;6.60;;;3.53;;
18499;SDS011;9379;52.134;11.576;2023-10-09T04:56:20;5.47;;;4.00;;
18499;SDS011;9379;52.134;11.576;2023-10-09T04:58:49;5.20;;;3.80;;
18499;SDS011;9379;52.134;11.576;2023-10-09T05:01:30;6.45;;;3.05;;
18499;SDS011;9379;52.134;11.576;2023-10-09T05:04:08;5.18;;;3.72;;
18499;SDS011;9379;52.134;11.576;2023-10-09T05:06:54;3.22;;;3.03;;
18499;SDS011;9379;52.134;11.576;2023-10-09T05:09:21;5.28;;;3.80;;
18499;SDS011;9379;52.134;11.576;2023-10-09T05:11:49;4.28;;;3.42;;
18499;SDS011;9379;52.134;11.576;2023-10-09T05:14:33;4.53;;;4.07;;
18499;SDS011;9379;52.134;11.576;2023-10-09T05:17:14;3.67;;;3.38;;
18499;SDS011;9379;52.134;11.576;2023-10-09T05:19:48;3.42;;;3.08;;
18499;SDS011;9379;52.134;11.576;2023-10-09T05:22:26;4.32;;;3.55;;
18499;SDS011;9379;52.134;11.576;2023-10-09T05:25:01;4.75;;;4.07;;
18499;SDS011;9379;52.134;11.576;2023-10-09T05:27:39;5.10;;;3.58;;
18499;SDS011;9379;52.134;11.576;2023-10-09T05:30:15;3.55;;;3.22;;
18499;SDS011;9379;52.134;11.576;2023-10-09T05:32:53;4.45;;;3.30;;
18499;SDS011;9379;52.134;11.576;2023-10-09T05:35:34;3.80;;;3.33;;
18499;SDS011;9379;52.134;11.576;2023-10-09T05:38:09;5.40;;;4.47;;
18499;SDS011;9379;52.134;11.576;2023-10-09T05:40:48;3.03;;;2.63;;
18499;SDS011;9379;52.134;11.576;2023-10-09T05:43:19;3.80;;;3.15;;
18499;SDS011;9379;52.134;11.576;2023-10-09T05:46:01;5.60;;;3.95;;
18499;SDS011;9379;52.134;11.576;2023-10-09T05:48:36;3.85;;;3.45;;
18499;SDS011;9379;52.134;11.576;2023-10-09T05:51:19;5.47;;;2.60;;
18499;SDS011;9379;52.134;11.576;2023-10-09T05:54:07;6.60;;;3.08;;
18499;SDS011;9379;52.134;11.576;2023-10-09T05:56:51;3.85;;;3.25;;
18499;SDS011;9379;52.134;11.576;2023-10-09T05:59:41;4.47;;;4.07;;
18499;SDS011;9379;52.134;11.576;2023-10-09T06:12:31;5.93;;;3.30;;
18499;SDS011;9379;52.134;11.576;2023-10-09T06:15:28;4.53;;;3.20;;
18499;SDS011;9379;52.134;11.576;2023-10-09T06:18:16;5.50;;;2.80;;
18499;SDS011;9379;52.134;11.576;2023-10-09T06:20:57;3.60;;;3.13;;
18499;SDS011;9379;52.134;11.576;2023-10-09T06:23:35;4.65;;;3.75;;
18499;SDS011;9379;52.134;11.576;2023-10-09T06:26:15;6.15;;;2.97;;
18499;SDS011;9379;52.134;11.576;2023-10-09T06:28:51;7.45;;;3.03;;
18499;SDS011;9379;52.134;11.576;2023-10-09T06:31:41;7.72;;;3.58;;
18499;SDS011;9379;52.134;11.576;2023-10-09T06:34:42;5.03;;;4.05;;
18499;SDS011;9379;52.134;11.576;2023-10-09T06:37:11;4.22;;;3.13;;
18499;SDS011;9379;52.134;11.576;2023-10-09T06:39:52;3.20;;;2.90;;
18499;SDS011;9379;52.134;11.576;2023-10-09T06:42:52;3.90;;;3.60;;
18499;SDS011;9379;52.134;11.576;2023-10-09T06:45:20;4.50;;;3.88;;
18499;SDS011;9379;52.134;11.576;2023-10-09T06:47:54;5.25;;;3.58;;
18499;SDS011;9379;52.134;11.576;2023-10-09T06:50:21;3.22;;;2.92;;
18499;SDS011;9379;52.134;11.576;2023-10-09T06:52:51;3.95;;;3.58;;
18499;SDS011;9379;52.134;11.576;2023-10-09T06:55:44;3.85;;;2.95;;
18499;SDS011;9379;52.134;11.576;2023-10-09T06:58:16;3.15;;;2.83;;
18499;SDS011;9379;52.134;11.576;2023-10-09T07:00:50;3.47;;;3.17;;
18499;SDS011;9379;52.134;11.576;2023-10-09T07:03:46;3.92;;;3.60;;
18499;SDS011;9379;52.134;11.576;2023-10-09T07:06:19;6.65;;;4.60;;
18499;SDS011;9379;52.134;11.576;2023-10-09T07:08:49;3.80;;;3.50;;
18499;SDS011;9379;52.134;11.576;2023-10-09T07:11:38;5.03;;;3.85;;
18499;SDS011;9379;52.134;11.576;2023-10-09T07:14:25;4.32;;;3.63;;
18499;SDS011;9379;52.134;11.576;2023-10-09T07:17:18;4.57;;;3.22;;
18499;SDS011;9379;52.134;11.576;2023-10-09T07:19:50;3.25;;;2.95;;
18499;SDS011;9379;52.134;11.576;2023-10-09T07:22:40;5.00;;;4.32;;
18499;SDS011;9379;52.134;11.576;2023-10-09T07:25:22;3.60;;;3.25;;
18499;SDS011;9379;52.134;11.576;2023-10-09T07:28:20;3.65;;;3.30;;
18499;SDS011;9379;52.134;11.576;2023-10-09T07:31:08;3.80;;;3.50;;
18499;SDS011;9379;52.134;11.576;2023-10-09T07:33:49;6.07;;;4.07;;
18499;SDS011;9379;52.134;11.576;2023-10-09T07:36:23;4.10;;;3.08;;
18499;SDS011;9379;52.134;11.576;2023-10-09T07:39:02;3.65;;;3.33;;
18499;SDS011;9379;52.134;11.576;2023-10-09T07:41:38;3.95;;;3.58;;
18499;SDS011;9379;52.134;11.576;2023-10-09T07:44:10;4.07;;;3.67;;
18499;SDS011;9379;52.134;11.576;2023-10-09T07:47:00;2.80;;;2.55;;
18499;SDS011;9379;52.134;11.576;2023-10-09T07:49:43;3.30;;;3.05;;
18499;SDS011;9379;52.134;11.576;2023-10-09T07:52:18;4.20;;;3.80;;
18499;SDS011;9379;52.134;11.576;2023-10-09T07:54:47;3.40;;;3.10;;
18499;SDS011;9379;52.134;11.576;2023-10-09T07:57:27;4.80;;;3.25;;
18499;SDS011;9379;52.134;11.576;2023-10-09T08:00:03;7.18;;;3.55;;
18499;SDS011;9379;52.134;11.576;2023-10-09T08:02:58;5.40;;;4.53;;
18499;SDS011;9379;52.134;11.576;2023-10-09T08:05:27;3.88;;;3.58;;
18499;SDS011;9379;52.134;11.576;2023-10-09T08:08:00;3.97;;;3.05;;
18499;SDS011;9379;52.134;11.576;2023-10-09T08:10:41;3.65;;;3.13;;
18499;SDS011;9379;52.134;11.576;2023-10-09T08:13:25;4.72;;;3.33;;
18499;SDS011;9379;52.134;11.576;2023-10-09T08:16:09;3.67;;;3.38;;
18499;SDS011;9379;52.134;11.576;2023-10-09T08:18:45;3.33;;;2.70;;
18499;SDS011;9379;52.134;11.576;2023-10-09T08:21:11;3.90;;;3.60;;
18499;SDS011;9379;52.134;11.576;2023-10-09T08:24:08;4.70;;;4.30;;
18499;SDS011;9379;52.134;11.576;2023-10-09T08:26:56;3.60;;;3.22;;
18499;SDS011;9379;52.134;11.576;2023-10-09T08:29:36;4.30;;;3.60;;
18499;SDS011;9379;52.134;11.576;2023-10-09T08:32:03;3.67;;;3.33;;
18499;SDS011;9379;52.134;11.576;2023-10-09T08:34:43;4.20;;;3.78;;
18499;SDS011;9379;52.134;11.576;2023-10-09T08:37:18;4.82;;;4.38;;
18499;SDS011;9379;52.134;11.576;2023-10-09T08:39:51;2.90;;;2.70;;
18499;SDS011;9379;52.134;11.576;2023-10-09T08:42:19;4.10;;;3.63;;
18499;SDS011;9379;52.134;11.576;2023-10-09T08:44:49;4.78;;;4.28;;
18499;SDS011;9379;52.134;11.576;2023-10-09T08:47:17;3.88;;;3.08;;
18499;SDS011;9379;52.134;11.576;2023-10-09T08:49:44;7.15;;;3.83;;
18499;SDS011;9379;52.134;11.576;2023-10-09T08:52:11;3.70;;;3.40;;
18499;SDS011;9379;52.134;11.576;2023-10-09T08:54:38;4.75;;;4.22;;
18499;SDS011;9379;52.134;11.576;2023-10-09T08:57:12;6.50;;;4.10;;
18499;SDS011;9379;52.134;11.576;2023-10-09T08:59:44;4.43;;;4.03;;
18499;SDS011;9379;52.134;11.576;2023-10-09T09:02:11;4.18;;;3.78;;
18499;SDS011;9379;52.134;11.576;2023-10-09T09:04:38;2.92;;;2.72;;
18499;SDS011;9379;52.134;11.576;2023-10-09T09:07:06;3.38;;;3.08;;
18499;SDS011;9379;52.134;11.576;2023-10-09T09:09:54;3.38;;;3.08;;
18499;SDS011;9379;52.134;11.576;2023-10-09T09:12:23;2.80;;;2.60;;
18499;SDS011;9379;52.134;11.576;2023-10-09T09:14:55;3.10;;;2.80;;
18499;SDS011;9379;52.134;11.576;2023-10-09T09:17:23;4.85;;;3.70;;
18499;SDS011;9379;52.134;11.576;2023-10-09T09:19:56;2.70;;;2.50;;
18499;SDS011;9379;52.134;11.576;2023-10-09T09:22:23;5.90;;;3.53;;
18499;SDS011;9379;52.134;11.576;2023-10-09T09:24:57;3.25;;;2.92;;
18499;SDS011;9379;52.134;11.576;2023-10-09T09:30:23;3.55;;;3.28;;
18499;SDS011;9379;52.134;11.576;2023-10-09T09:32:56;3.08;;;2.78;;
18499;SDS011;9379;52.134;11.576;2023-10-09T09:35:37;2.58;;;2.38;;
18499;SDS011;9379;52.134;11.576;2023-10-09T09:38:04;2.63;;;2.42;;
18499;SDS011;9379;52.134;11.576;2023-10-09T09:40:42;2.88;;;2.63;;
18499;SDS011;9379;52.134;11.576;2023-10-09T09:43:10;2.60;;;2.40;;
18499;SDS011;9379;52.134;11.576;2023-10-09T09:45:48;2.45;;;2.22;;
18499;SDS011;9379;52.134;11.576;2023-10-09T09:48:16;3.08;;;2.88;;
18499;SDS011;9379;52.134;11.576;2023-10-09T09:50:44;2.85;;;2.65;;
18499;SDS011;9379;52.134;11.576;2023-10-09T09:53:12;2.67;;;2.45;;
18499;SDS011;9379;52.134;11.576;2023-10-09T09:55:44;2.22;;;2.03;;
18499;SDS011;9379;52.134;11.576;2023-10-09T09:58:21;3.42;;;3.13;;
18499;SDS011;9379;52.134;11.576;2023-10-09T10:00:50;3.05;;;2.85;;
18499;SDS011;9379;52.134;11.576;2023-10-09T10:03:22;3.58;;;3.28;;
18499;SDS011;9379;52.134;11.576;2023-10-09T10:05:52;2.63;;;2.42;;
18499;SDS011;9379;52.134;11.576;2023-10-09T10:08:22;3.00;;;2.78;;
18499;SDS011;9379;52.134;11.576;2023-10-09T10:10:57;2.35;;;2.15;;
18499;SDS011;9379;52.134;11.576;2023-10-09T10:16:26;3.17;;;2.70;;
18499;SDS011;9379;52.134;11.576;2023-10-09T10:19:00;3.80;;;3.50;;
18499;SDS011;9379;52.134;11.576;2023-10-09T10:21:47;2.97;;;2.72;;
18499;SDS011;9379;52.134;11.576;2023-10-09T10:27:20;2.50;;;2.25;;
18499;SDS011;9379;52.134;11.576;2023-10-09T10:33:00;2.72;;;2.53;;
18499;SDS011;9379;52.134;11.576;2023-10-09T10:35:37;2.03;;;1.92;;
18499;SDS011;9379;52.134;11.576;2023-10-09T10:38:27;2.33;;;2.15;;
18499;SDS011;9379;52.134;11.576;2023-10-09T10:41:14;2.70;;;2.50;;
18499;SDS011;9379;52.134;11.576;2023-10-09T10:43:47;3.47;;;3.13;;
18499;SDS011;9379;52.134;11.576;2023-10-09T10:46:22;3.10;;;2.90;;
18499;SDS011;9379;52.134;11.576;2023-10-09T10:49:05;3.10;;;2.80;;
18499;SDS011;9379;52.134;11.576;2023-10-09T10:51:45;2.33;;;2.15;;
18499;SDS011;9379;52.134;11.576;2023-10-09T10:54:21;2.60;;;2.40;;
18499;SDS011;9379;52.134;11.576;2023-10-09T10:57:18;3.05;;;2.78;;
18499;SDS011;9379;52.134;11.576;2023-10-09T10:59:55;2.90;;;2.70;;
18499;SDS011;9379;52.134;11.576;2023-10-09T11:02:37;3.35;;;2.72;;
18499;SDS011;9379;52.134;11.576;2023-10-09T11:05:07;3.85;;;2.55;;
18499;SDS011;9379;52.134;11.576;2023-10-09T11:07:50;2.95;;;2.75;;
18499;SDS011;9379;52.134;11.576;2023-10-09T11:10:23;3.42;;;3.13;;
18499;SDS011;9379;52.134;11.576;2023-10-09T11:12:56;3.22;;;2.13;;
18499;SDS011;9379;52.134;11.576;2023-10-09T11:15:55;2.88;;;2.58;;
18499;SDS011;9379;52.134;11.576;2023-10-09T11:18:40;3.83;;;2.80;;
18499;SDS011;9379;52.134;11.576;2023-10-09T11:21:14;2.50;;;2.30;;
18499;SDS011;9379;52.134;11.576;2023-10-09T11:23:57;3.72;;;3.10;;
18499;SDS011;9379;52.134;11.576;2023-10-09T11:26:25;3.17;;;2.88;;
18499;SDS011;9379;52.134;11.576;2023-10-09T11:29:06;3.30;;;2.38;;
18499;SDS011;9379;52.134;11.576;2023-10-09T11:31:41;2.88;;;2.28;;
18499;SDS011;9379;52.134;11.576;2023-10-09T11:34:24;4.07;;;3.13;;
18499;SDS011;9379;52.134;11.576;2023-10-09T11:36:59;2.70;;;2.50;;
18499;SDS011;9379;52.134;11.576;2023-10-09T11:39:28;2.28;;;2.08;;
18499;SDS011;9379;52.134;11.576;2023-10-09T11:42:06;3.20;;;2.90;;
18499;SDS011;9379;52.134;11.576;2023-10-09T11:44:34;2.88;;;2.65;;
18499;SDS011;9379;52.134;11.576;2023-10-09T11:47:04;2.42;;;2.22;;
18499;SDS011;9379;52.134;11.576;2023-10-09T11:49:48;2.30;;;2.10;;
18499;SDS011;9379;52.134;11.576;2023-10-09T11:52:23;1.92;;;1.83;;
18499;SDS011;9379;52.134;11.576;2023-10-09T11:55:04;2.92;;;2.42;;
18499;SDS011;9379;52.134;11.576;2023-10-09T11:57:32;2.75;;;2.55;;
18499;SDS011;9379;52.134;11.576;2023-10-09T12:00:00;2.33;;;2.13;;
18499;SDS011;9379;52.134;11.576;2023-10-09T12:02:49;1.98;;;1.88;;
18499;SDS011;9379;52.134;11.576;2023-10-09T12:05:17;2.92;;;2.40;;
18499;SDS011;9379;52.134;11.576;2023-10-09T12:07:45;3.50;;;2.55;;
18499;SDS011;9379;52.134;11.576;2023-10-09T12:10:14;1.50;;;1.35;;
18499;SDS011;9379;52.134;11.576;2023-10-09T12:22:57;3.00;;;2.20;;
18499;SDS011;9379;52.134;11.576;2023-10-09T12:25:25;3.50;;;3.05;;
18499;SDS011;9379;52.134;11.576;2023-10-09T12:27:56;2.97;;;2.78;;
18499;SDS011;9379;52.134;11.576;2023-10-09T12:30:39;3.20;;;2.88;;
18499;SDS011;9379;52.134;11.576;2023-10-09T12:33:07;4.03;;;3.42;;
18499;SDS011;9379;52.134;11.576;2023-10-09T12:35:38;2.60;;;2.35;;
18499;SDS011;9379;52.134;11.576;2023-10-09T12:38:07;2.88;;;2.55;;
18499;SDS011;9379;52.134;11.576;2023-10-09T12:40:35;3.58;;;3.28;;
18499;SDS011;9379;52.134;11.576;2023-10-09T12:43:06;3.95;;;3.58;;
18499;SDS011;9379;52.134;11.576;2023-10-09T12:45:40;3.65;;;3.35;;
18499;SDS011;9379;52.134;11.576;2023-10-09T12:48:07;4.38;;;3.97;;
18499;SDS011;9379;52.134;11.576;2023-10-09T12:50:35;4.15;;;3.75;;
18499;SDS011;9379;52.134;11.576;2023-10-09T12:53:08;3.88;;;3.10;;
18499;SDS011;9379;52.134;11.576;2023-10-09T12:55:35;4.00;;;3.70;;
18499;SDS011;9379;52.134;11.576;2023-10-09T12:58:07;4.45;;;3.08;;
18499;SDS011;9379;52.134;11.576;2023-10-09T13:00:35;6.07;;;4.63;;
18499;SDS011;9379;52.134;11.576;2023-10-09T13:03:09;3.17;;;2.88;;
18499;SDS011;9379;52.134;11.576;2023-10-09T13:05:46;3.78;;;3.42;;
18499;SDS011;9379;52.134;11.576;2023-10-09T13:08:21;3.42;;;3.13;;
18499;SDS011;9379;52.134;11.576;2023-10-09T13:10:56;3.15;;;2.45;;
18499;SDS011;9379;52.134;11.576;2023-10-09T13:13:26;4.88;;;3.78;;
18499;SDS011;9379;52.134;11.576;2023-10-09T13:16:10;2.28;;;2.08;;
18499;SDS011;9379;52.134;11.576;2023-10-09T13:18:40;3.65;;;3.08;;
18499;SDS011;9379;52.134;11.576;2023-10-09T13:21:14;6.18;;;3.03;;
18499;SDS011;9379;52.134;11.576;2023-10-09T13:23:43;3.67;;;3.33;;
18499;SDS011;9379;52.134;11.576;2023-10-09T13:26:13;3.50;;;3.13;;
18499;SDS011;9379;52.134;11.576;2023-10-09T13:28:49;3.65;;;2.92;;
18499;SDS011;9379;52.134;11.576;2023-10-09T13:31:18;3.60;;;3.30;;
18499;SDS011;9379;52.134;11.576;2023-10-09T13:33:47;7.53;;;3.92;;
18499;SDS011;9379;52.134;11.576;2023-10-09T13:36:14;3.88;;;3.45;;
18499;SDS011;9379;52.134;11.576;2023-10-09T13:38:53;3.30;;;3.10;;
18499;SDS011;9379;52.134;11.576;2023-10-09T13:41:21;4.68;;;3.65;;
18499;SDS011;9379;52.134;11.576;2023-10-09T13:43:51;3.78;;;3.17;;
18499;SDS011;9379;52.134;11.576;2023-10-09T13:46:18;3.90;;;3.55;;
18499;SDS011;9379;52.134;11.576;2023-10-09T13:48:45;3.50;;;3.30;;
18499;SDS011;9379;52.134;11.576;2023-10-09T13:51:14;3.17;;;2.88;;
18499;SDS011;9379;52.134;11.576;2023-10-09T13:53:43;5.25;;;3.35;;
18499;SDS011;9379;52.134;11.576;2023-10-09T13:56:15;4.63;;;4.22;;
18499;SDS011;9379;52.134;11.576;2023-10-09T13:58:45;2.85;;;2.65;;
18499;SDS011;9379;52.134;11.576;2023-10-09T14:01:12;3.20;;;2.55;;
18499;SDS011;9379;52.134;11.576;2023-10-09T14:03:46;3.53;;;3.22;;
18499;SDS011;9379;52.134;11.576;2023-10-09T14:06:16;3.90;;;3.50;;
18499;SDS011;9379;52.134;11.576;2023-10-09T14:08:55;5.53;;;3.53;;
18499;SDS011;9379;52.134;11.576;2023-10-09T14:11:24;2.97;;;2.78;;
18499;SDS011;9379;52.134;11.576;2023-10-09T14:13:51;3.25;;;2.92;;
18499;SDS011;9379;52.134;11.576;2023-10-09T14:16:18;3.85;;;3.55;;
18499;SDS011;9379;52.134;11.576;2023-10-09T14:18:54;3.95;;;3.65;;
18499;SDS011;9379;52.134;11.576;2023-10-09T14:21:24;8.57;;;5.68;;
18499;SDS011;9379;52.134;11.576;2023-10-09T14:23:53;4.95;;;4.40;;
18499;SDS011;9379;52.134;11.576;2023-10-09T14:26:24;4.72;;;4.25;;
18499;SDS011;9379;52.134;11.576;2023-10-09T14:28:51;7.88;;;3.38;;
18499;SDS011;9379;52.134;11.576;2023-10-09T14:31:19;5.97;;;4.65;;
18499;SDS011;9379;52.134;11.576;2023-10-09T14:33:51;7.57;;;2.75;;
18499;SDS011;9379;52.134;11.576;2023-10-09T14:36:19;3.90;;;3.50;;
18499;SDS011;9379;52.134;11.576;2023-10-09T14:38:47;5.25;;;4.68;;
18499;SDS011;9379;52.134;11.576;2023-10-09T14:41:17;4.03;;;3.72;;
18499;SDS011;9379;52.134;11.576;2023-10-09T14:43:49;4.53;;;4.13;;
18499;SDS011;9379;52.134;11.576;2023-10-09T14:46:17;4.68;;;4.07;;
18499;SDS011;9379;52.134;11.576;2023-10-09T14:48:50;3.35;;;3.05;;
18499;SDS011;9379;52.134;11.576;2023-10-09T14:51:18;4.72;;;3.72;;
18499;SDS011;9379;52.134;11.576;2023-10-09T14:53:52;4.82;;;4.35;;
18499;SDS011;9379;52.134;11.576;2023-10-09T14:56:27;4.90;;;4.40;;
18499;SDS011;9379;52.134;11.576;2023-10-09T14:58:59;5.55;;;4.97;;
18499;SDS011;9379;52.134;11.576;2023-10-09T15:01:27;5.93;;;5.30;;
18499;SDS011;9379;52.134;11.576;2023-10-09T15:03:56;7.30;;;4.93;;
18499;SDS011;9379;52.134;11.576;2023-10-09T15:06:24;5.55;;;4.38;;
18499;SDS011;9379;52.134;11.576;2023-10-09T15:08:55;5.05;;;4.47;;
18499;SDS011;9379;52.134;11.576;2023-10-09T15:11:23;4.75;;;4.32;;
18499;SDS011;9379;52.134;11.576;2023-10-09T15:13:51;5.50;;;5.00;;
18499;SDS011;9379;52.134;11.576;2023-10-09T15:16:20;5.30;;;4.80;;
18499;SDS011;9379;52.134;11.576;2023-10-09T15:18:51;3.92;;;3.63;;
18499;SDS011;9379;52.134;11.576;2023-10-09T15:21:19;5.68;;;4.95;;
18499;SDS011;9379;52.134;11.576;2023-10-09T15:23:48;5.18;;;4.78;;
18499;SDS011;9379;52.134;11.576;2023-10-09T15:26:16;4.80;;;3.95;;
18499;SDS011;9379;52.134;11.576;2023-10-09T15:28:43;3.00;;;2.72;;
18499;SDS011;9379;52.134;11.576;2023-10-09T15:31:10;2.50;;;2.30;;
18499;SDS011;9379;52.134;11.576;2023-10-09T15:33:40;2.33;;;1.73;;
18499;SDS011;9379;52.134;11.576;2023-10-09T15:36:11;2.30;;;2.10;;
18499;SDS011;9379;52.134;11.576;2023-10-09T15:38:39;4.75;;;2.95;;
18499;SDS011;9379;52.134;11.576;2023-10-09T15:41:06;2.70;;;2.50;;
18499;SDS011;9379;52.134;11.576;2023-10-09T15:43:33;2.20;;;2.00;;
18499;SDS011;9379;52.134;11.576;2023-10-09T15:46:02;2.78;;;2.58;;
18499;SDS011;9379;52.134;11.576;2023-10-09T15:48:29;3.38;;;2.65;;
18499;SDS011;9379;52.134;11.576;2023-10-09T15:50:59;3.45;;;3.15;;
18499;SDS011;9379;52.134;11.576;2023-10-09T15:53:26;3.85;;;3.35;;
18499;SDS011;9379;52.134;11.576;2023-10-09T15:55:54;5.50;;;3.80;;
18499;SDS011;9379;52.134;11.576;2023-10-09T15:58:22;2.90;;;2.70;;
18499;SDS011;9379;52.134;11.576;2023-10-09T16:00:50;6.00;;;4.45;;
18499;SDS011;9379;52.134;11.576;2023-10-09T16:03:17;4.20;;;3.90;;